Hartford, Ohio
Current Conditions -  °F | °C
As of 11:51 PM on Monday 22 Dec 2014 (Local Time) from KYNG Reporting Station
Broken Clouds Broken Clouds  
Wind Chill: 27°   Ceiling: 14000
Heat Index: 35°   Visibility: 10mi
Dew Point: 30°   Wind: 12mph
Humidity: 82%   Direction: 110°ESE
Pressure: 29.91"   Gusts: NA
Location:  41.31°N, 80.57°W
Report Text: KYNG 230451Z 11010KT 10SM FEW110 FEW130 BKN140 02/M01 A2991 RMK AO2 SLP138 T00171011 400441050
Loading
Personal Weather Stations






























Interactive Weather Map New forecast layout! Learn more

10-Day Weather Forecast

Advertisements
Track Severe Weather on mobile